sensor_id;sensor_type;location;lat;lon;timestamp;pressure;altitude;pressure_sealevel;temperature;humidity
48810;BME280;40070;47.322;18.784;2022-10-18T00:01:22;1017.22;;;12.24;63.02
48810;BME280;40070;47.322;18.784;2022-10-18T00:03:25;1017.20;;;12.08;63.50
48810;BME280;40070;47.322;18.784;2022-10-18T00:05:27;1017.18;;;12.16;63.21
48810;BME280;40070;47.322;18.784;2022-10-18T00:07:30;1017.22;;;12.13;63.32
48810;BME280;40070;47.322;18.784;2022-10-18T00:09:32;1017.19;;;12.09;63.46
48810;BME280;40070;47.322;18.784;2022-10-18T00:11:35;1017.19;;;12.20;63.39
48810;BME280;40070;47.322;18.784;2022-10-18T00:13:37;1017.18;;;12.14;63.87
48810;BME280;40070;47.322;18.784;2022-10-18T00:15:47;1017.12;;;12.16;63.54
48810;BME280;40070;47.322;18.784;2022-10-18T00:17:51;1017.13;;;12.19;63.39
48810;BME280;40070;47.322;18.784;2022-10-18T00:19:53;1017.09;;;12.10;63.38
48810;BME280;40070;47.322;18.784;2022-10-18T00:21:55;1017.05;;;12.02;64.12
48810;BME280;40070;47.322;18.784;2022-10-18T00:23:58;1017.04;;;11.98;64.73
48810;BME280;40070;47.322;18.784;2022-10-18T00:26:07;1017.03;;;12.05;64.57
48810;BME280;40070;47.322;18.784;2022-10-18T00:28:11;1017.04;;;12.13;64.30
48810;BME280;40070;47.322;18.784;2022-10-18T00:30:13;1017.02;;;12.20;63.48
48810;BME280;40070;47.322;18.784;2022-10-18T00:32:15;1017.05;;;12.27;62.96
48810;BME280;40070;47.322;18.784;2022-10-18T00:34:18;1017.02;;;12.13;62.89
48810;BME280;40070;47.322;18.784;2022-10-18T00:36:20;1016.99;;;12.01;63.09
48810;BME280;40070;47.322;18.784;2022-10-18T00:38:23;1017.01;;;11.96;63.41
48810;BME280;40070;47.322;18.784;2022-10-18T00:40:25;1016.99;;;12.01;63.49
48810;BME280;40070;47.322;18.784;2022-10-18T00:42:32;1017.00;;;12.07;63.42
48810;BME280;40070;47.322;18.784;2022-10-18T00:46:50;1016.98;;;11.80;64.74
48810;BME280;40070;47.322;18.784;2022-10-18T00:48:56;1017.04;;;11.65;65.35
48810;BME280;40070;47.322;18.784;2022-10-18T00:50:59;1017.01;;;11.70;64.58
48810;BME280;40070;47.322;18.784;2022-10-18T00:53:02;1017.00;;;11.73;64.25
48810;BME280;40070;47.322;18.784;2022-10-18T00:55:06;1016.94;;;11.77;64.03
48810;BME280;40070;47.322;18.784;2022-10-18T00:57:09;1016.91;;;11.67;64.07
48810;BME280;40070;47.322;18.784;2022-10-18T00:59:15;1016.87;;;11.83;63.61
48810;BME280;40070;47.322;18.784;2022-10-18T01:01:18;1016.87;;;11.77;63.52
48810;BME280;40070;47.322;18.784;2022-10-18T01:03:20;1016.84;;;11.77;63.28
48810;BME280;40070;47.322;18.784;2022-10-18T01:05:23;1016.83;;;11.77;63.01
48810;BME280;40070;47.322;18.784;2022-10-18T01:07:35;1016.86;;;11.64;63.46
48810;BME280;40070;47.322;18.784;2022-10-18T01:09:51;1016.82;;;11.54;63.67
48810;BME280;40070;47.322;18.784;2022-10-18T01:14:25;1016.76;;;11.38;64.15
48810;BME280;40070;47.322;18.784;2022-10-18T01:19:14;1016.77;;;11.47;64.08
48810;BME280;40070;47.322;18.784;2022-10-18T01:25:56;1016.66;;;11.65;63.14
48810;BME280;40070;47.322;18.784;2022-10-18T01:28:08;1016.66;;;11.68;62.96
48810;BME280;40070;47.322;18.784;2022-10-18T01:32:36;1016.63;;;11.49;63.74
48810;BME280;40070;47.322;18.784;2022-10-18T01:34:41;1016.59;;;11.56;63.68
48810;BME280;40070;47.322;18.784;2022-10-18T01:36:46;1016.60;;;11.56;63.91
48810;BME280;40070;47.322;18.784;2022-10-18T01:38:51;1016.60;;;11.55;64.19
48810;BME280;40070;47.322;18.784;2022-10-18T01:40:55;1016.55;;;11.63;64.25
48810;BME280;40070;47.322;18.784;2022-10-18T01:42:59;1016.53;;;11.62;64.49
48810;BME280;40070;47.322;18.784;2022-10-18T01:45:02;1016.51;;;11.75;64.17
48810;BME280;40070;47.322;18.784;2022-10-18T01:47:05;1016.49;;;11.66;64.39
48810;BME280;40070;47.322;18.784;2022-10-18T01:49:08;1016.47;;;11.61;64.46
48810;BME280;40070;47.322;18.784;2022-10-18T01:51:11;1016.49;;;11.69;64.21
48810;BME280;40070;47.322;18.784;2022-10-18T01:53:20;1016.48;;;11.73;64.26
48810;BME280;40070;47.322;18.784;2022-10-18T01:55:44;1016.51;;;11.74;64.24
48810;BME280;40070;47.322;18.784;2022-10-18T01:57:41;1016.44;;;11.79;63.92
48810;BME280;40070;47.322;18.784;2022-10-18T01:59:50;1016.38;;;11.78;63.28
48810;BME280;40070;47.322;18.784;2022-10-18T02:06:41;1016.32;;;11.63;63.38
48810;BME280;40070;47.322;18.784;2022-10-18T02:08:48;1016.32;;;11.64;63.38
48810;BME280;40070;47.322;18.784;2022-10-18T02:10:54;1016.26;;;11.68;63.10
48810;BME280;40070;47.322;18.784;2022-10-18T02:12:58;1016.29;;;11.64;63.58
48810;BME280;40070;47.322;18.784;2022-10-18T02:15:01;1016.24;;;11.66;63.76
48810;BME280;40070;47.322;18.784;2022-10-18T02:17:05;1016.23;;;11.66;64.12
48810;BME280;40070;47.322;18.784;2022-10-18T02:19:14;1016.27;;;11.72;64.32
48810;BME280;40070;47.322;18.784;2022-10-18T02:21:18;1016.29;;;11.81;64.49
48810;BME280;40070;47.322;18.784;2022-10-18T02:23:21;1016.34;;;11.80;64.75
48810;BME280;40070;47.322;18.784;2022-10-18T02:25:27;1016.33;;;11.88;64.67
48810;BME280;40070;47.322;18.784;2022-10-18T02:27:30;1016.34;;;11.89;64.56
48810;BME280;40070;47.322;18.784;2022-10-18T02:29:32;1016.29;;;11.74;65.21
48810;BME280;40070;47.322;18.784;2022-10-18T02:31:41;1016.33;;;11.82;64.83
48810;BME280;40070;47.322;18.784;2022-10-18T02:33:50;1016.31;;;11.75;64.59
48810;BME280;40070;47.322;18.784;2022-10-18T02:35:55;1016.29;;;11.68;64.76
48810;BME280;40070;47.322;18.784;2022-10-18T02:38:00;1016.26;;;11.71;64.75
48810;BME280;40070;47.322;18.784;2022-10-18T02:40:04;1016.24;;;11.64;64.62
48810;BME280;40070;47.322;18.784;2022-10-18T02:42:08;1016.28;;;11.76;64.37
48810;BME280;40070;47.322;18.784;2022-10-18T02:44:10;1016.34;;;11.91;63.92
48810;BME280;40070;47.322;18.784;2022-10-18T02:46:13;1016.32;;;11.79;63.87
48810;BME280;40070;47.322;18.784;2022-10-18T02:48:15;1016.34;;;11.94;63.25
48810;BME280;40070;47.322;18.784;2022-10-18T02:50:19;1016.30;;;11.77;63.60
48810;BME280;40070;47.322;18.784;2022-10-18T02:52:21;1016.29;;;11.80;63.51
48810;BME280;40070;47.322;18.784;2022-10-18T02:54:24;1016.28;;;11.71;63.97
48810;BME280;40070;47.322;18.784;2022-10-18T02:56:26;1016.28;;;11.72;64.14
48810;BME280;40070;47.322;18.784;2022-10-18T02:58:29;1016.25;;;11.52;64.52
48810;BME280;40070;47.322;18.784;2022-10-18T03:00:31;1016.29;;;11.11;65.87
48810;BME280;40070;47.322;18.784;2022-10-18T03:02:34;1016.24;;;11.33;65.31
48810;BME280;40070;47.322;18.784;2022-10-18T03:04:36;1016.24;;;11.38;64.97
48810;BME280;40070;47.322;18.784;2022-10-18T03:06:39;1016.29;;;11.21;65.65
48810;BME280;40070;47.322;18.784;2022-10-18T03:08:44;1016.29;;;11.31;65.54
48810;BME280;40070;47.322;18.784;2022-10-18T03:10:46;1016.25;;;11.41;65.12
48810;BME280;40070;47.322;18.784;2022-10-18T03:12:49;1016.25;;;11.38;65.14
48810;BME280;40070;47.322;18.784;2022-10-18T03:14:52;1016.24;;;11.41;64.89
48810;BME280;40070;47.322;18.784;2022-10-18T03:16:55;1016.27;;;11.43;64.83
48810;BME280;40070;47.322;18.784;2022-10-18T03:18:57;1016.26;;;11.36;64.36
48810;BME280;40070;47.322;18.784;2022-10-18T03:21:03;1016.29;;;11.32;64.14
48810;BME280;40070;47.322;18.784;2022-10-18T03:23:05;1016.35;;;11.29;64.01
48810;BME280;40070;47.322;18.784;2022-10-18T03:25:08;1016.39;;;11.13;64.32
48810;BME280;40070;47.322;18.784;2022-10-18T03:27:10;1016.43;;;11.14;64.53
48810;BME280;40070;47.322;18.784;2022-10-18T03:29:13;1016.43;;;11.16;64.88
48810;BME280;40070;47.322;18.784;2022-10-18T03:31:17;1016.46;;;11.12;65.20
48810;BME280;40070;47.322;18.784;2022-10-18T03:33:19;1016.43;;;11.12;65.41
48810;BME280;40070;47.322;18.784;2022-10-18T03:35:22;1016.43;;;11.29;65.08
48810;BME280;40070;47.322;18.784;2022-10-18T03:37:24;1016.43;;;11.28;64.48
48810;BME280;40070;47.322;18.784;2022-10-18T03:39:26;1016.43;;;11.24;64.40
48810;BME280;40070;47.322;18.784;2022-10-18T03:41:29;1016.45;;;11.34;63.86
48810;BME280;40070;47.322;18.784;2022-10-18T03:43:31;1016.42;;;11.26;64.06
48810;BME280;40070;47.322;18.784;2022-10-18T03:45:34;1016.41;;;11.31;64.09
48810;BME280;40070;47.322;18.784;2022-10-18T03:47:36;1016.40;;;11.11;64.64
48810;BME280;40070;47.322;18.784;2022-10-18T03:49:38;1016.40;;;11.19;64.48
48810;BME280;40070;47.322;18.784;2022-10-18T03:51:41;1016.44;;;11.10;64.64
48810;BME280;40070;47.322;18.784;2022-10-18T03:53:43;1016.44;;;11.02;64.94
48810;BME280;40070;47.322;18.784;2022-10-18T03:55:53;1016.46;;;11.07;64.87
48810;BME280;40070;47.322;18.784;2022-10-18T03:57:55;1016.46;;;11.16;64.88
48810;BME280;40070;47.322;18.784;2022-10-18T03:59:58;1016.49;;;11.25;64.33
48810;BME280;40070;47.322;18.784;2022-10-18T04:02:00;1016.50;;;11.37;63.71
48810;BME280;40070;47.322;18.784;2022-10-18T04:04:06;1016.46;;;11.51;62.98
48810;BME280;40070;47.322;18.784;2022-10-18T04:06:09;1016.49;;;11.32;63.33
48810;BME280;40070;47.322;18.784;2022-10-18T04:08:13;1016.47;;;11.32;63.41
48810;BME280;40070;47.322;18.784;2022-10-18T04:10:16;1016.49;;;11.14;63.29
48810;BME280;40070;47.322;18.784;2022-10-18T04:12:18;1016.47;;;10.98;63.36
48810;BME280;40070;47.322;18.784;2022-10-18T04:14:21;1016.45;;;11.01;63.26
48810;BME280;40070;47.322;18.784;2022-10-18T04:16:23;1016.48;;;10.87;63.65
48810;BME280;40070;47.322;18.784;2022-10-18T04:18:26;1016.50;;;10.76;63.50
48810;BME280;40070;47.322;18.784;2022-10-18T04:20:28;1016.48;;;10.55;63.85
48810;BME280;40070;47.322;18.784;2022-10-18T04:22:31;1016.44;;;10.44;64.17
48810;BME280;40070;47.322;18.784;2022-10-18T04:24:33;1016.45;;;10.58;63.82
48810;BME280;40070;47.322;18.784;2022-10-18T04:26:35;1016.45;;;10.42;64.13
48810;BME280;40070;47.322;18.784;2022-10-18T04:28:38;1016.47;;;10.27;64.48
48810;BME280;40070;47.322;18.784;2022-10-18T04:30:40;1016.46;;;10.39;64.00
48810;BME280;40070;47.322;18.784;2022-10-18T04:32:43;1016.49;;;10.43;64.13
48810;BME280;40070;47.322;18.784;2022-10-18T04:34:45;1016.47;;;10.39;64.47
48810;BME280;40070;47.322;18.784;2022-10-18T04:36:48;1016.45;;;10.43;64.36
48810;BME280;40070;47.322;18.784;2022-10-18T04:38:50;1016.37;;;10.39;64.40
48810;BME280;40070;47.322;18.784;2022-10-18T04:40:52;1016.37;;;10.25;64.87
48810;BME280;40070;47.322;18.784;2022-10-18T04:42:55;1016.33;;;10.50;64.27
48810;BME280;40070;47.322;18.784;2022-10-18T04:44:57;1016.34;;;10.54;64.03
48810;BME280;40070;47.322;18.784;2022-10-18T04:47:00;1016.31;;;10.60;64.37
48810;BME280;40070;47.322;18.784;2022-10-18T04:49:02;1016.31;;;10.42;65.46
48810;BME280;40070;47.322;18.784;2022-10-18T04:51:05;1016.24;;;10.14;66.28
48810;BME280;40070;47.322;18.784;2022-10-18T04:53:07;1016.23;;;10.22;65.85
48810;BME280;40070;47.322;18.784;2022-10-18T04:55:10;1016.23;;;10.40;65.55
48810;BME280;40070;47.322;18.784;2022-10-18T04:57:12;1016.26;;;10.58;64.92
48810;BME280;40070;47.322;18.784;2022-10-18T04:59:15;1016.22;;;10.74;64.81
48810;BME280;40070;47.322;18.784;2022-10-18T05:01:17;1016.21;;;10.77;65.13
48810;BME280;40070;47.322;18.784;2022-10-18T05:03:19;1016.20;;;10.86;65.06
48810;BME280;40070;47.322;18.784;2022-10-18T05:05:22;1016.12;;;10.94;65.14
48810;BME280;40070;47.322;18.784;2022-10-18T05:07:24;1016.10;;;11.03;65.23
48810;BME280;40070;47.322;18.784;2022-10-18T05:09:27;1016.10;;;11.03;65.28
48810;BME280;40070;47.322;18.784;2022-10-18T05:11:29;1016.11;;;11.07;65.29
48810;BME280;40070;47.322;18.784;2022-10-18T05:13:32;1016.13;;;11.10;65.45
48810;BME280;40070;47.322;18.784;2022-10-18T05:15:34;1016.19;;;11.15;65.86
48810;BME280;40070;47.322;18.784;2022-10-18T05:17:37;1016.16;;;11.10;65.68
48810;BME280;40070;47.322;18.784;2022-10-18T05:19:39;1016.14;;;11.05;65.11
48810;BME280;40070;47.322;18.784;2022-10-18T05:21:41;1016.13;;;11.04;64.94
48810;BME280;40070;47.322;18.784;2022-10-18T05:23:44;1016.18;;;11.01;64.84
48810;BME280;40070;47.322;18.784;2022-10-18T05:25:47;1016.15;;;10.96;64.98
48810;BME280;40070;47.322;18.784;2022-10-18T05:27:49;1016.16;;;10.79;66.37
48810;BME280;40070;47.322;18.784;2022-10-18T05:29:55;1016.15;;;10.82;65.04
48810;BME280;40070;47.322;18.784;2022-10-18T05:31:57;1016.08;;;10.67;65.29
48810;BME280;40070;47.322;18.784;2022-10-18T05:33:59;1016.04;;;10.76;64.88
48810;BME280;40070;47.322;18.784;2022-10-18T05:36:02;1016.11;;;10.81;64.57
48810;BME280;40070;47.322;18.784;2022-10-18T05:38:05;1016.11;;;10.90;65.03
48810;BME280;40070;47.322;18.784;2022-10-18T05:40:07;1016.11;;;10.95;65.11
48810;BME280;40070;47.322;18.784;2022-10-18T05:42:10;1016.16;;;11.01;65.75
48810;BME280;40070;47.322;18.784;2022-10-18T05:44:13;1016.13;;;11.04;66.19
48810;BME280;40070;47.322;18.784;2022-10-18T05:46:15;1016.14;;;11.07;65.90
48810;BME280;40070;47.322;18.784;2022-10-18T05:48:21;1016.13;;;11.06;65.85
48810;BME280;40070;47.322;18.784;2022-10-18T05:50:26;1016.14;;;11.18;65.65
48810;BME280;40070;47.322;18.784;2022-10-18T05:52:32;1016.15;;;11.28;66.09
48810;BME280;40070;47.322;18.784;2022-10-18T05:54:34;1016.21;;;11.35;66.38
48810;BME280;40070;47.322;18.784;2022-10-18T05:56:38;1016.22;;;11.28;66.48
48810;BME280;40070;47.322;18.784;2022-10-18T05:58:41;1016.27;;;11.24;66.88
48810;BME280;40070;47.322;18.784;2022-10-18T06:00:44;1016.20;;;11.54;66.11
48810;BME280;40070;47.322;18.784;2022-10-18T06:02:46;1016.14;;;11.75;65.66
48810;BME280;40070;47.322;18.784;2022-10-18T06:04:49;1016.15;;;11.74;65.74
48810;BME280;40070;47.322;18.784;2022-10-18T06:06:51;1016.13;;;11.85;65.75
48810;BME280;40070;47.322;18.784;2022-10-18T06:08:54;1016.16;;;11.93;65.92
48810;BME280;40070;47.322;18.784;2022-10-18T06:10:56;1016.13;;;11.98;66.34
48810;BME280;40070;47.322;18.784;2022-10-18T06:12:58;1016.14;;;12.16;66.15
48810;BME280;40070;47.322;18.784;2022-10-18T06:15:01;1016.18;;;12.32;66.13
48810;BME280;40070;47.322;18.784;2022-10-18T06:17:03;1016.16;;;12.39;66.13
48810;BME280;40070;47.322;18.784;2022-10-18T06:19:06;1016.19;;;12.30;66.42
48810;BME280;40070;47.322;18.784;2022-10-18T06:21:08;1016.28;;;12.50;66.23
48810;BME280;40070;47.322;18.784;2022-10-18T06:23:11;1016.28;;;12.51;66.57
48810;BME280;40070;47.322;18.784;2022-10-18T06:25:13;1016.32;;;12.58;66.64
48810;BME280;40070;47.322;18.784;2022-10-18T06:27:16;1016.34;;;12.69;66.44
48810;BME280;40070;47.322;18.784;2022-10-18T06:29:18;1016.32;;;12.92;66.16
48810;BME280;40070;47.322;18.784;2022-10-18T06:31:21;1016.34;;;13.06;65.88
48810;BME280;40070;47.322;18.784;2022-10-18T06:33:23;1016.30;;;13.18;65.63
48810;BME280;40070;47.322;18.784;2022-10-18T06:35:26;1016.35;;;13.01;66.63
48810;BME280;40070;47.322;18.784;2022-10-18T06:37:28;1016.34;;;13.20;66.47
48810;BME280;40070;47.322;18.784;2022-10-18T06:39:31;1016.38;;;13.35;66.40
48810;BME280;40070;47.322;18.784;2022-10-18T06:41:33;1016.41;;;13.53;65.87
48810;BME280;40070;47.322;18.784;2022-10-18T06:43:36;1016.40;;;13.72;65.52
48810;BME280;40070;47.322;18.784;2022-10-18T06:45:38;1016.41;;;13.77;65.36
48810;BME280;40070;47.322;18.784;2022-10-18T06:47:40;1016.42;;;13.77;65.37
48810;BME280;40070;47.322;18.784;2022-10-18T06:49:43;1016.39;;;13.97;65.06
48810;BME280;40070;47.322;18.784;2022-10-18T06:51:45;1016.43;;;14.12;64.80
48810;BME280;40070;47.322;18.784;2022-10-18T06:53:48;1016.48;;;14.21;63.75
48810;BME280;40070;47.322;18.784;2022-10-18T06:55:50;1016.44;;;14.44;63.07
48810;BME280;40070;47.322;18.784;2022-10-18T06:57:53;1016.45;;;14.28;63.40
48810;BME280;40070;47.322;18.784;2022-10-18T06:59:56;1016.47;;;14.37;63.53
48810;BME280;40070;47.322;18.784;2022-10-18T07:01:58;1016.49;;;14.35;63.55
48810;BME280;40070;47.322;18.784;2022-10-18T07:04:00;1016.54;;;14.36;63.53
48810;BME280;40070;47.322;18.784;2022-10-18T07:06:04;1016.58;;;14.45;63.13
48810;BME280;40070;47.322;18.784;2022-10-18T07:08:07;1016.52;;;14.39;63.43
48810;BME280;40070;47.322;18.784;2022-10-18T07:10:10;1016.55;;;14.44;63.62
48810;BME280;40070;47.322;18.784;2022-10-18T07:12:12;1016.52;;;14.50;63.59
48810;BME280;40070;47.322;18.784;2022-10-18T07:14:15;1016.50;;;14.66;62.95
48810;BME280;40070;47.322;18.784;2022-10-18T07:16:17;1016.50;;;14.61;62.40
48810;BME280;40070;47.322;18.784;2022-10-18T07:18:20;1016.48;;;14.79;61.81
48810;BME280;40070;47.322;18.784;2022-10-18T07:20:22;1016.46;;;15.08;60.97
48810;BME280;40070;47.322;18.784;2022-10-18T07:22:25;1016.41;;;15.25;60.76
48810;BME280;40070;47.322;18.784;2022-10-18T07:24:27;1016.44;;;15.15;60.74
48810;BME280;40070;47.322;18.784;2022-10-18T07:26:30;1016.42;;;15.19;60.47
48810;BME280;40070;47.322;18.784;2022-10-18T07:28:33;1016.47;;;15.20;60.86
48810;BME280;40070;47.322;18.784;2022-10-18T07:30:35;1016.39;;;15.15;60.27
48810;BME280;40070;47.322;18.784;2022-10-18T07:32:38;1016.35;;;15.25;59.23
48810;BME280;40070;47.322;18.784;2022-10-18T07:34:40;1016.30;;;15.29;59.18
48810;BME280;40070;47.322;18.784;2022-10-18T07:36:43;1016.28;;;15.25;59.44
48810;BME280;40070;47.322;18.784;2022-10-18T07:38:45;1016.24;;;15.31;58.91
48810;BME280;40070;47.322;18.784;2022-10-18T07:40:48;1016.18;;;15.31;57.93
48810;BME280;40070;47.322;18.784;2022-10-18T07:42:56;1016.18;;;15.27;58.00
48810;BME280;40070;47.322;18.784;2022-10-18T07:44:59;1016.23;;;15.47;57.05
48810;BME280;40070;47.322;18.784;2022-10-18T07:47:08;1016.26;;;15.79;55.32
48810;BME280;40070;47.322;18.784;2022-10-18T07:49:10;1016.21;;;16.04;54.79
48810;BME280;40070;47.322;18.784;2022-10-18T07:51:13;1016.22;;;15.74;56.07
48810;BME280;40070;47.322;18.784;2022-10-18T07:53:15;1016.23;;;15.83;55.48
48810;BME280;40070;47.322;18.784;2022-10-18T07:55:18;1016.20;;;16.19;55.09
48810;BME280;40070;47.322;18.784;2022-10-18T07:57:20;1016.17;;;16.27;54.29
48810;BME280;40070;47.322;18.784;2022-10-18T07:59:23;1016.18;;;16.48;53.27
48810;BME280;40070;47.322;18.784;2022-10-18T08:01:25;1016.13;;;16.31;52.62
48810;BME280;40070;47.322;18.784;2022-10-18T08:03:28;1016.09;;;16.68;52.76
48810;BME280;40070;47.322;18.784;2022-10-18T08:05:30;1016.07;;;16.68;53.90
48810;BME280;40070;47.322;18.784;2022-10-18T08:07:33;1016.06;;;16.91;52.03
48810;BME280;40070;47.322;18.784;2022-10-18T08:09:36;1016.04;;;17.13;51.07
48810;BME280;40070;47.322;18.784;2022-10-18T08:11:39;1016.03;;;17.19;50.13
48810;BME280;40070;47.322;18.784;2022-10-18T08:13:42;1016.03;;;17.20;49.78
48810;BME280;40070;47.322;18.784;2022-10-18T08:15:44;1016.00;;;17.54;50.40
48810;BME280;40070;47.322;18.784;2022-10-18T08:17:47;1015.91;;;17.54;51.48
48810;BME280;40070;47.322;18.784;2022-10-18T08:19:50;1015.89;;;17.61;50.85
48810;BME280;40070;47.322;18.784;2022-10-18T08:21:52;1015.85;;;17.81;50.25
48810;BME280;40070;47.322;18.784;2022-10-18T08:23:55;1015.82;;;18.07;49.87
48810;BME280;40070;47.322;18.784;2022-10-18T08:26:02;1015.81;;;18.04;47.30
48810;BME280;40070;47.322;18.784;2022-10-18T08:28:05;1015.78;;;18.27;45.95
48810;BME280;40070;47.322;18.784;2022-10-18T08:30:09;1015.70;;;18.13;44.24
48810;BME280;40070;47.322;18.784;2022-10-18T08:32:11;1015.67;;;18.21;44.81
48810;BME280;40070;47.322;18.784;2022-10-18T08:34:14;1015.64;;;18.62;43.48
48810;BME280;40070;47.322;18.784;2022-10-18T08:36:16;1015.67;;;18.33;43.46
48810;BME280;40070;47.322;18.784;2022-10-18T08:38:19;1015.62;;;18.51;43.99
48810;BME280;40070;47.322;18.784;2022-10-18T08:40:22;1015.63;;;18.34;43.27
48810;BME280;40070;47.322;18.784;2022-10-18T08:44:46;1015.50;;;19.03;42.55
48810;BME280;40070;47.322;18.784;2022-10-18T08:46:49;1015.50;;;18.92;42.70
48810;BME280;40070;47.322;18.784;2022-10-18T08:48:53;1015.50;;;19.02;42.64
48810;BME280;40070;47.322;18.784;2022-10-18T08:50:56;1015.49;;;19.01;42.95
48810;BME280;40070;47.322;18.784;2022-10-18T08:53:02;1015.41;;;19.03;42.06
48810;BME280;40070;47.322;18.784;2022-10-18T08:55:23;1015.42;;;19.19;41.53
48810;BME280;40070;47.322;18.784;2022-10-18T08:57:27;1015.43;;;19.17;42.15
48810;BME280;40070;47.322;18.784;2022-10-18T08:59:38;1015.44;;;19.49;41.62
48810;BME280;40070;47.322;18.784;2022-10-18T09:06:30;1015.36;;;19.90;40.88
48810;BME280;40070;47.322;18.784;2022-10-18T09:08:49;1015.32;;;19.96;41.25
48810;BME280;40070;47.322;18.784;2022-10-18T09:20:44;1015.24;;;20.10;39.74
48810;BME280;40070;47.322;18.784;2022-10-18T09:25:21;1015.21;;;19.92;39.69
48810;BME280;40070;47.322;18.784;2022-10-18T09:27:27;1015.13;;;20.47;39.42
48810;BME280;40070;47.322;18.784;2022-10-18T09:29:39;1015.09;;;20.48;39.28
48810;BME280;40070;47.322;18.784;2022-10-18T09:31:56;1015.05;;;20.49;39.17
48810;BME280;40070;47.322;18.784;2022-10-18T09:34:02;1015.08;;;20.78;39.20
48810;BME280;40070;47.322;18.784;2022-10-18T09:36:09;1015.05;;;20.76;38.72
48810;BME280;40070;47.322;18.784;2022-10-18T09:38:16;1015.02;;;20.68;38.91
48810;BME280;40070;47.322;18.784;2022-10-18T09:40:22;1015.01;;;21.03;38.97
48810;BME280;40070;47.322;18.784;2022-10-18T09:42:38;1014.95;;;21.54;38.93
48810;BME280;40070;47.322;18.784;2022-10-18T09:44:44;1014.94;;;21.59;37.62
48810;BME280;40070;47.322;18.784;2022-10-18T09:46:50;1014.89;;;21.78;37.24
48810;BME280;40070;47.322;18.784;2022-10-18T09:48:58;1014.88;;;21.38;37.67
48810;BME280;40070;47.322;18.784;2022-10-18T09:51:03;1014.90;;;21.28;37.17
48810;BME280;40070;47.322;18.784;2022-10-18T09:53:15;1014.87;;;21.27;37.63
48810;BME280;40070;47.322;18.784;2022-10-18T09:55:21;1014.80;;;21.41;37.39
48810;BME280;40070;47.322;18.784;2022-10-18T09:57:31;1014.77;;;21.42;37.35
48810;BME280;40070;47.322;18.784;2022-10-18T09:59:44;1014.77;;;21.17;37.84
48810;BME280;40070;47.322;18.784;2022-10-18T10:01:47;1014.68;;;21.37;37.00
48810;BME280;40070;47.322;18.784;2022-10-18T10:03:50;1014.68;;;21.63;36.05
48810;BME280;40070;47.322;18.784;2022-10-18T10:06:13;1014.63;;;21.71;36.29
48810;BME280;40070;47.322;18.784;2022-10-18T10:08:16;1014.61;;;22.09;35.78
48810;BME280;40070;47.322;18.784;2022-10-18T10:10:20;1014.57;;;22.31;35.10
48810;BME280;40070;47.322;18.784;2022-10-18T10:14:43;1014.48;;;22.45;34.80
48810;BME280;40070;47.322;18.784;2022-10-18T10:16:47;1014.46;;;22.27;34.78
48810;BME280;40070;47.322;18.784;2022-10-18T10:18:51;1014.43;;;22.47;35.99
48810;BME280;40070;47.322;18.784;2022-10-18T10:20:57;1014.42;;;22.64;33.76
48810;BME280;40070;47.322;18.784;2022-10-18T10:23:08;1014.34;;;22.53;34.17
48810;BME280;40070;47.322;18.784;2022-10-18T10:25:21;1014.34;;;22.81;34.23
48810;BME280;40070;47.322;18.784;2022-10-18T10:27:29;1014.26;;;22.77;33.77
48810;BME280;40070;47.322;18.784;2022-10-18T10:32:02;1014.23;;;23.06;33.16
48810;BME280;40070;47.322;18.784;2022-10-18T10:36:20;1014.19;;;23.36;33.97
48810;BME280;40070;47.322;18.784;2022-10-18T10:38:23;1014.17;;;23.42;33.20
48810;BME280;40070;47.322;18.784;2022-10-18T10:40:29;1014.13;;;23.35;32.89
48810;BME280;40070;47.322;18.784;2022-10-18T10:42:35;1014.15;;;23.36;32.58
48810;BME280;40070;47.322;18.784;2022-10-18T10:44:38;1014.10;;;23.44;33.03
48810;BME280;40070;47.322;18.784;2022-10-18T10:46:53;1014.03;;;23.67;31.70
48810;BME280;40070;47.322;18.784;2022-10-18T10:48:56;1014.03;;;23.46;32.47
48810;BME280;40070;47.322;18.784;2022-10-18T10:51:09;1013.91;;;23.64;31.50
48810;BME280;40070;47.322;18.784;2022-10-18T10:53:34;1013.87;;;23.76;32.22
48810;BME280;40070;47.322;18.784;2022-10-18T10:55:28;1013.81;;;23.70;32.37
48810;BME280;40070;47.322;18.784;2022-10-18T10:57:33;1013.77;;;23.92;32.63
48810;BME280;40070;47.322;18.784;2022-10-18T10:59:46;1013.76;;;23.89;32.62
48810;BME280;40070;47.322;18.784;2022-10-18T11:01:49;1013.76;;;23.76;31.92
48810;BME280;40070;47.322;18.784;2022-10-18T11:04:49;1013.71;;;23.50;31.79
48810;BME280;40070;47.322;18.784;2022-10-18T11:06:32;1013.70;;;23.69;32.05
48810;BME280;40070;47.322;18.784;2022-10-18T11:08:39;1013.74;;;23.42;31.71
48810;BME280;40070;47.322;18.784;2022-10-18T11:10:48;1013.76;;;23.45;32.56
48810;BME280;40070;47.322;18.784;2022-10-18T11:13:01;1013.68;;;23.79;31.95
48810;BME280;40070;47.322;18.784;2022-10-18T11:17:33;1013.66;;;23.72;32.63
48810;BME280;40070;47.322;18.784;2022-10-18T11:19:39;1013.65;;;23.69;32.50
48810;BME280;40070;47.322;18.784;2022-10-18T11:21:43;1013.59;;;23.51;32.85
48810;BME280;40070;47.322;18.784;2022-10-18T11:23:46;1013.62;;;23.31;32.82
48810;BME280;40070;47.322;18.784;2022-10-18T11:28:09;1013.46;;;22.98;32.68
48810;BME280;40070;47.322;18.784;2022-10-18T11:30:21;1013.46;;;22.85;33.42
48810;BME280;40070;47.322;18.784;2022-10-18T11:35:00;1013.46;;;22.92;33.26
48810;BME280;40070;47.322;18.784;2022-10-18T11:42:06;1013.41;;;22.29;34.21
48810;BME280;40070;47.322;18.784;2022-10-18T11:44:32;1013.38;;;22.46;34.52
48810;BME280;40070;47.322;18.784;2022-10-18T11:51:14;1013.23;;;22.30;34.30
48810;BME280;40070;47.322;18.784;2022-10-18T12:00:33;1013.19;;;22.54;34.14
48810;BME280;40070;47.322;18.784;2022-10-18T12:03:02;1013.12;;;22.13;34.14
48810;BME280;40070;47.322;18.784;2022-10-18T12:04:54;1013.12;;;22.16;34.77
48810;BME280;40070;47.322;18.784;2022-10-18T12:06:58;1013.08;;;22.24;34.98
48810;BME280;40070;47.322;18.784;2022-10-18T12:09:03;1013.02;;;21.92;35.60